Time;durP1;ratioP1;P1;durP2;ratioP2;P2;SDS_P1;SDS_P2;PMS_P1;PMS_P2;Temp;Humidity;BMP_temperature;BMP_pressure;BME280_temperature;BME280_humidity;BME280_pressure;Samples;Min_cycle;Max_cycle;Signal;HPM_P1;HPM_P2
2023/06/26 00:01:34;;;;;;;13.17;11.47;;;;;;;;;;5096245;28;20548;-78
2023/06/26 00:04:00;;;;;;;12.05;10.85;;;;;;;;;;5095827;28;20401;-78
2023/06/26 00:06:26;;;;;;;16.33;11.02;;;;;;;;;;5078055;28;20796;-78
2023/06/26 00:08:53;;;;;;;11.48;10.27;;;;;;;;;;5094415;28;20494;-78
2023/06/26 00:11:19;;;;;;;14.18;11.63;;;;;;;;;;5093524;28;20390;-78
2023/06/26 00:13:46;;;;;;;12.73;10.65;;;;;;;;;;5094453;28;20430;-77
2023/06/26 00:16:12;;;;;;;11.63;10.18;;;;;;;;;;5095813;28;20394;-77
2023/06/26 00:18:38;;;;;;;13.15;10.75;;;;;;;;;;5095357;28;20432;-78
2023/06/26 00:21:04;;;;;;;15.43;10.38;;;;;;;;;;5091719;28;20489;-77
2023/06/26 00:23:36;;;;;;;12.18;10.88;;;;;;;;;;5102788;28;20488;-77
2023/06/26 00:26:03;;;;;;;12.23;10.50;;;;;;;;;;5110402;28;20427;-77
2023/06/26 00:28:29;;;;;;;12.03;10.27;;;;;;;;;;5095476;28;20905;-78
2023/06/26 00:30:55;;;;;;;12.20;11.00;;;;;;;;;;5094856;28;20410;-77
2023/06/26 00:33:22;;;;;;;12.75;10.70;;;;;;;;;;5094459;28;20406;-77
2023/06/26 00:35:48;;;;;;;13.48;10.75;;;;;;;;;;5080302;28;20467;-77
2023/06/26 00:38:14;;;;;;;11.70;10.50;;;;;;;;;;5062912;28;20457;-79
2023/06/26 00:40:40;;;;;;;12.82;11.43;;;;;;;;;;5094650;28;20451;-78
2023/06/26 00:43:06;;;;;;;15.45;11.10;;;;;;;;;;5094516;28;20473;-77
2023/06/26 00:45:32;;;;;;;11.52;10.15;;;;;;;;;;5095682;28;20394;-77
2023/06/26 00:47:58;;;;;;;11.88;10.68;;;;;;;;;;5093961;28;20398;-77
2023/06/26 00:50:24;;;;;;;14.65;10.80;;;;;;;;;;5095139;28;20447;-77
2023/06/26 00:52:50;;;;;;;12.60;10.93;;;;;;;;;;5094248;28;20431;-77
2023/06/26 00:55:17;;;;;;;11.63;10.20;;;;;;;;;;5092516;28;20429;-77
2023/06/26 00:57:44;;;;;;;12.60;10.60;;;;;;;;;;5096074;28;20893;-77
2023/06/26 01:00:11;;;;;;;12.60;11.30;;;;;;;;;;5095776;28;20902;-77
2023/06/26 01:02:38;;;;;;;14.23;11.35;;;;;;;;;;5081715;28;20433;-78
2023/06/26 01:05:06;;;;;;;12.85;11.55;;;;;;;;;;5083828;28;20467;-77
2023/06/26 01:07:36;;;;;;;13.40;12.02;;;;;;;;;;5094741;28;20417;-78
2023/06/26 01:10:03;;;;;;;13.67;11.50;;;;;;;;;;5076447;28;20444;-78
2023/06/26 01:12:29;;;;;;;14.60;12.35;;;;;;;;;;5095643;28;20473;-77
2023/06/26 01:14:55;;;;;;;14.60;11.90;;;;;;;;;;5094358;28;20422;-77
2023/06/26 01:17:23;;;;;;;12.77;11.48;;;;;;;;;;5094890;28;20406;-78
2023/06/26 01:19:50;;;;;;;18.73;11.90;;;;;;;;;;5093927;28;20429;-77
2023/06/26 01:22:22;;;;;;;14.45;11.80;;;;;;;;;;5103637;28;20410;-77
2023/06/26 01:24:57;;;;;;;13.63;12.23;;;;;;;;;;5095881;28;20505;-77
2023/06/26 01:27:25;;;;;;;13.52;11.90;;;;;;;;;;5080128;28;20476;-78
2023/06/26 01:29:52;;;;;;;13.13;11.73;;;;;;;;;;5073039;28;20405;-77
2023/06/26 01:32:18;;;;;;;14.77;12.27;;;;;;;;;;5079507;28;20411;-77
2023/06/26 01:34:45;;;;;;;16.25;12.70;;;;;;;;;;5081106;28;20454;-77
2023/06/26 01:37:11;;;;;;;16.75;12.88;;;;;;;;;;5060890;28;20739;-78
2023/06/26 01:39:37;;;;;;;15.13;13.25;;;;;;;;;;5076342;28;20469;-78
2023/06/26 01:42:03;;;;;;;15.02;12.73;;;;;;;;;;5073253;28;20400;-78
2023/06/26 01:44:30;;;;;;;13.88;12.40;;;;;;;;;;5074114;28;20906;-78
2023/06/26 01:47:04;;;;;;;16.23;13.13;;;;;;;;;;5074263;28;20401;-78
2023/06/26 01:49:45;;;;;;;15.05;13.15;;;;;;;;;;5074109;28;20850;-78
2023/06/26 01:52:23;;;;;;;15.18;13.10;;;;;;;;;;5091020;28;20414;-78
2023/06/26 01:54:53;;;;;;;14.53;12.93;;;;;;;;;;5093740;28;20510;-77
2023/06/26 01:57:22;;;;;;;16.52;13.85;;;;;;;;;;5097093;28;20402;-78
2023/06/26 01:59:48;;;;;;;17.20;14.35;;;;;;;;;;5073822;28;20406;-77
2023/06/26 02:02:15;;;;;;;15.75;13.18;;;;;;;;;;5089230;28;20399;-77
2023/06/26 02:04:41;;;;;;;15.23;13.68;;;;;;;;;;5055780;28;20395;-77
2023/06/26 02:07:09;;;;;;;18.90;14.47;;;;;;;;;;5072269;28;20435;-77
2023/06/26 02:09:35;;;;;;;16.50;14.77;;;;;;;;;;5084155;28;20409;-76
2023/06/26 02:12:01;;;;;;;16.20;14.57;;;;;;;;;;5092323;28;20412;-76
2023/06/26 02:14:27;;;;;;;15.82;14.20;;;;;;;;;;5091665;28;20793;-78
2023/06/26 02:16:53;;;;;;;16.88;14.73;;;;;;;;;;5093614;28;20406;-77
2023/06/26 02:19:21;;;;;;;16.50;14.80;;;;;;;;;;5093167;28;20394;-76
2023/06/26 02:21:48;;;;;;;17.98;14.60;;;;;;;;;;5093321;28;20442;-78
2023/06/26 02:24:14;;;;;;;16.53;13.73;;;;;;;;;;5093119;28;20434;-77
2023/06/26 02:26:40;;;;;;;14.85;13.25;;;;;;;;;;5096331;28;20389;-77
2023/06/26 02:29:06;;;;;;;14.55;13.05;;;;;;;;;;5093388;28;20877;-77
2023/06/26 02:31:32;;;;;;;13.73;12.32;;;;;;;;;;5093293;28;20464;-77
2023/06/26 02:33:58;;;;;;;15.10;12.70;;;;;;;;;;5096737;28;20414;-77
2023/06/26 02:36:24;;;;;;;14.77;13.05;;;;;;;;;;5073442;28;20485;-77
2023/06/26 02:38:50;;;;;;;13.85;12.43;;;;;;;;;;5087871;28;20405;-77
2023/06/26 02:41:16;;;;;;;14.20;12.68;;;;;;;;;;5091821;28;20402;-77
2023/06/26 02:43:43;;;;;;;21.25;12.73;;;;;;;;;;5074644;28;20410;-77
2023/06/26 02:46:09;;;;;;;13.23;11.93;;;;;;;;;;5087757;28;20419;-77
2023/06/26 02:48:35;;;;;;;15.30;12.30;;;;;;;;;;5089297;28;20452;-77
2023/06/26 02:51:01;;;;;;;13.23;11.77;;;;;;;;;;5090741;28;20456;-77
2023/06/26 02:53:27;;;;;;;14.30;12.77;;;;;;;;;;5091238;28;20762;-77
2023/06/26 02:55:53;;;;;;;14.18;12.60;;;;;;;;;;5090390;28;20572;-77
2023/06/26 02:58:19;;;;;;;13.25;11.82;;;;;;;;;;5072182;28;20392;-78
2023/06/26 03:00:45;;;;;;;12.90;11.55;;;;;;;;;;5079565;28;20442;-78
2023/06/26 03:03:12;;;;;;;13.18;11.82;;;;;;;;;;5092305;28;20401;-78
2023/06/26 03:05:38;;;;;;;13.67;11.33;;;;;;;;;;5074285;28;20770;-78
2023/06/26 03:08:05;;;;;;;14.97;11.87;;;;;;;;;;5092705;28;20428;-77
2023/06/26 03:10:31;;;;;;;13.15;11.70;;;;;;;;;;5091742;28;20815;-77
2023/06/26 03:12:57;;;;;;;12.70;11.40;;;;;;;;;;5085958;28;20452;-77
2023/06/26 03:15:23;;;;;;;11.95;10.63;;;;;;;;;;5089831;28;20509;-77
2023/06/26 03:17:49;;;;;;;14.13;11.48;;;;;;;;;;5091036;28;20410;-77
2023/06/26 03:20:15;;;;;;;14.27;12.00;;;;;;;;;;5091135;28;20394;-77
2023/06/26 03:22:41;;;;;;;13.65;11.60;;;;;;;;;;5090753;28;20429;-77
2023/06/26 03:25:07;;;;;;;13.75;11.63;;;;;;;;;;5074360;28;20479;-77
2023/06/26 03:27:33;;;;;;;13.65;11.70;;;;;;;;;;5074483;28;20811;-78
2023/06/26 03:30:00;;;;;;;14.25;11.45;;;;;;;;;;5073688;28;20422;-78
2023/06/26 03:32:26;;;;;;;12.90;11.07;;;;;;;;;;5083340;28;20411;-77
2023/06/26 03:34:52;;;;;;;12.32;10.52;;;;;;;;;;5070961;28;20472;-78
2023/06/26 03:37:19;;;;;;;13.77;11.00;;;;;;;;;;5095277;28;20397;-77
2023/06/26 03:39:45;;;;;;;13.30;10.85;;;;;;;;;;5071600;28;20435;-77
2023/06/26 03:42:11;;;;;;;12.32;10.30;;;;;;;;;;5060058;28;20406;-77
2023/06/26 03:44:37;;;;;;;14.15;10.55;;;;;;;;;;5093823;28;20739;-77
2023/06/26 03:47:03;;;;;;;12.75;10.50;;;;;;;;;;5094823;28;20393;-77
2023/06/26 03:49:29;;;;;;;13.32;10.98;;;;;;;;;;5087733;28;20428;-77
2023/06/26 03:51:55;;;;;;;13.98;11.00;;;;;;;;;;5077113;28;20486;-77
2023/06/26 03:54:21;;;;;;;12.50;10.02;;;;;;;;;;5093307;28;20426;-78
2023/06/26 03:56:47;;;;;;;11.43;9.82;;;;;;;;;;5071856;28;20414;-77
2023/06/26 03:59:13;;;;;;;11.93;9.65;;;;;;;;;;5081809;28;20400;-78
2023/06/26 04:01:40;;;;;;;11.80;9.52;;;;;;;;;;5091168;28;20939;-77
2023/06/26 04:04:06;;;;;;;11.25;9.45;;;;;;;;;;5089681;28;20512;-78
2023/06/26 04:06:32;;;;;;;13.77;9.15;;;;;;;;;;5089538;28;20870;-77
2023/06/26 04:08:58;;;;;;;13.47;9.00;;;;;;;;;;5094454;28;20555;-77
2023/06/26 04:11:25;;;;;;;10.43;8.93;;;;;;;;;;5094265;28;20410;-77
2023/06/26 04:13:51;;;;;;;12.43;8.70;;;;;;;;;;5093165;28;20431;-77
2023/06/26 04:16:17;;;;;;;12.75;8.30;;;;;;;;;;5093677;28;20409;-77
2023/06/26 04:18:43;;;;;;;13.43;8.82;;;;;;;;;;5094107;28;20414;-78
2023/06/26 04:21:13;;;;;;;14.27;8.88;;;;;;;;;;5076616;28;20406;-77
2023/06/26 04:23:40;;;;;;;12.98;9.02;;;;;;;;;;5076636;28;20404;-78
2023/06/26 04:26:07;;;;;;;13.23;8.73;;;;;;;;;;5076882;28;20402;-77
2023/06/26 04:28:34;;;;;;;12.43;8.53;;;;;;;;;;5077138;28;20483;-76
2023/06/26 04:31:00;;;;;;;13.75;8.05;;;;;;;;;;5076518;28;20406;-77
2023/06/26 04:33:27;;;;;;;10.93;7.80;;;;;;;;;;5093391;28;20398;-77
2023/06/26 04:35:53;;;;;;;13.88;8.00;;;;;;;;;;5091641;28;20465;-77
2023/06/26 04:38:21;;;;;;;12.57;8.32;;;;;;;;;;5075458;28;20429;-77
2023/06/26 04:40:47;;;;;;;14.13;8.32;;;;;;;;;;5086041;28;20415;-77
2023/06/26 04:43:13;;;;;;;13.47;8.63;;;;;;;;;;5092699;28;20832;-78
2023/06/26 04:45:39;;;;;;;15.13;9.07;;;;;;;;;;5084173;28;20481;-78
2023/06/26 04:48:06;;;;;;;15.88;9.25;;;;;;;;;;5064740;28;20473;-77
2023/06/26 04:50:33;;;;;;;15.43;9.82;;;;;;;;;;5073827;28;20874;-77
2023/06/26 04:52:59;;;;;;;15.88;9.45;;;;;;;;;;5092204;28;20417;-77
2023/06/26 04:55:26;;;;;;;18.15;10.07;;;;;;;;;;5069578;28;20508;-76
2023/06/26 04:57:52;;;;;;;16.52;9.63;;;;;;;;;;5089286;28;20410;-77
2023/06/26 05:00:19;;;;;;;16.52;10.20;;;;;;;;;;5088978;28;20497;-76
2023/06/26 05:02:45;;;;;;;17.70;10.40;;;;;;;;;;5075741;28;20465;-75
2023/06/26 05:05:11;;;;;;;20.42;11.10;;;;;;;;;;5078817;28;20429;-75
2023/06/26 05:07:38;;;;;;;17.77;10.43;;;;;;;;;;5074874;28;20433;-75
2023/06/26 05:10:04;;;;;;;18.38;9.95;;;;;;;;;;5074810;28;20420;-74
2023/06/26 05:12:32;;;;;;;21.95;10.20;;;;;;;;;;5091867;28;20433;-74
2023/06/26 05:14:58;;;;;;;17.17;10.27;;;;;;;;;;5074709;28;20493;-75
2023/06/26 05:17:24;;;;;;;14.30;9.07;;;;;;;;;;5115101;27;20429;-75
2023/06/26 05:19:50;;;;;;;16.15;9.57;;;;;;;;;;5078694;28;20755;-75
2023/06/26 05:22:17;;;;;;;15.73;8.88;;;;;;;;;;5075726;28;20392;-75
2023/06/26 05:24:46;;;;;;;14.47;8.17;;;;;;;;;;5072148;28;20421;-74
2023/06/26 05:27:19;;;;;;;15.15;8.35;;;;;;;;;;5073424;28;20521;-75
2023/06/26 05:29:45;;;;;;;15.30;7.72;;;;;;;;;;5073339;28;20441;-75
2023/06/26 05:32:13;;;;;;;13.97;7.57;;;;;;;;;;5078449;28;20428;-75
2023/06/26 05:34:39;;;;;;;15.60;7.03;;;;;;;;;;5075679;28;20428;-75
2023/06/26 05:37:06;;;;;;;16.50;7.18;;;;;;;;;;5087965;28;20425;-75
2023/06/26 05:39:32;;;;;;;12.73;6.88;;;;;;;;;;5091130;28;20410;-75
2023/06/26 05:41:58;;;;;;;18.50;6.80;;;;;;;;;;5091081;28;20426;-75
2023/06/26 05:44:24;;;;;;;13.57;6.30;;;;;;;;;;5092136;28;20884;-75
2023/06/26 05:46:51;;;;;;;14.75;6.22;;;;;;;;;;5074648;28;20475;-75
2023/06/26 05:49:17;;;;;;;16.85;5.85;;;;;;;;;;5085563;28;20501;-75
2023/06/26 05:51:43;;;;;;;12.77;5.25;;;;;;;;;;5074505;28;20414;-75
2023/06/26 05:54:11;;;;;;;11.48;5.13;;;;;;;;;;5088377;28;20808;-75
2023/06/26 05:56:37;;;;;;;13.15;5.13;;;;;;;;;;5076479;28;20994;-75
2023/06/26 05:59:05;;;;;;;12.40;5.35;;;;;;;;;;5083815;28;21015;-75
2023/06/26 06:01:33;;;;;;;13.82;5.40;;;;;;;;;;5072621;28;20426;-75
2023/06/26 06:03:59;;;;;;;12.10;5.03;;;;;;;;;;5072697;28;20464;-75
2023/06/26 06:06:25;;;;;;;12.27;4.65;;;;;;;;;;5090560;28;20421;-75
2023/06/26 06:08:51;;;;;;;12.75;4.80;;;;;;;;;;5091744;28;20420;-75
2023/06/26 06:11:17;;;;;;;11.32;4.70;;;;;;;;;;5091471;28;20402;-75
2023/06/26 06:13:43;;;;;;;12.38;4.35;;;;;;;;;;5090240;28;20843;-74
2023/06/26 06:16:09;;;;;;;12.15;4.40;;;;;;;;;;5089645;28;20467;-77
2023/06/26 06:18:35;;;;;;;8.82;3.67;;;;;;;;;;5091309;28;20402;-76
2023/06/26 06:21:01;;;;;;;12.35;4.35;;;;;;;;;;5092311;28;20410;-77
2023/06/26 06:23:28;;;;;;;10.23;3.83;;;;;;;;;;5092941;28;20853;-76
2023/06/26 06:25:54;;;;;;;11.45;3.80;;;;;;;;;;5076300;28;20445;-77
2023/06/26 06:28:20;;;;;;;11.18;4.25;;;;;;;;;;5074483;28;20405;-77
2023/06/26 06:30:47;;;;;;;8.50;3.53;;;;;;;;;;5092492;28;20901;-77
2023/06/26 06:33:14;;;;;;;10.35;3.33;;;;;;;;;;5091948;28;20758;-77
2023/06/26 06:35:40;;;;;;;9.27;2.60;;;;;;;;;;5073812;28;20417;-77
2023/06/26 06:38:06;;;;;;;7.05;2.70;;;;;;;;;;5092367;28;20452;-77
2023/06/26 06:40:32;;;;;;;9.93;3.00;;;;;;;;;;5090776;28;20905;-77
2023/06/26 06:42:58;;;;;;;8.52;2.78;;;;;;;;;;5092145;28;20501;-77
2023/06/26 06:45:24;;;;;;;7.18;2.90;;;;;;;;;;5091623;28;20418;-78
2023/06/26 06:47:50;;;;;;;8.88;3.08;;;;;;;;;;5079183;28;20462;-77
2023/06/26 06:50:17;;;;;;;7.68;2.92;;;;;;;;;;5090187;28;20414;-78
2023/06/26 06:52:44;;;;;;;9.90;3.43;;;;;;;;;;5083920;28;20414;-77
2023/06/26 06:55:10;;;;;;;9.82;3.15;;;;;;;;;;5074910;28;20470;-78
2023/06/26 06:57:37;;;;;;;7.47;2.50;;;;;;;;;;5074394;28;20413;-77
2023/06/26 07:00:11;;;;;;;8.98;2.72;;;;;;;;;;5091083;28;20418;-77
2023/06/26 07:02:37;;;;;;;8.50;2.85;;;;;;;;;;5070022;28;20410;-77
2023/06/26 07:05:04;;;;;;;7.13;2.43;;;;;;;;;;5062296;28;20458;-77
2023/06/26 07:07:31;;;;;;;8.15;2.40;;;;;;;;;;5075093;28;20495;-77
2023/06/26 07:09:58;;;;;;;9.15;2.63;;;;;;;;;;5060392;28;20421;-77
2023/06/26 07:12:24;;;;;;;6.57;2.42;;;;;;;;;;5090658;28;20429;-77
2023/06/26 07:14:50;;;;;;;8.50;2.90;;;;;;;;;;5091225;28;20493;-77
2023/06/26 07:17:17;;;;;;;8.87;2.77;;;;;;;;;;5077583;28;20774;-77
2023/06/26 07:19:43;;;;;;;10.50;2.63;;;;;;;;;;5076913;28;20426;-77
2023/06/26 07:22:09;;;;;;;10.27;2.97;;;;;;;;;;5069157;28;20457;-77
2023/06/26 07:24:35;;;;;;;9.25;3.05;;;;;;;;;;5076964;28;20449;-77
2023/06/26 07:27:01;;;;;;;6.75;2.70;;;;;;;;;;5093930;28;20445;-77
2023/06/26 07:29:27;;;;;;;8.77;2.78;;;;;;;;;;5060796;28;20401;-76
2023/06/26 07:31:53;;;;;;;8.75;2.67;;;;;;;;;;5060719;28;20426;-76
2023/06/26 07:34:19;;;;;;;7.18;2.50;;;;;;;;;;5095503;28;20511;-76
2023/06/26 07:36:45;;;;;;;9.82;2.92;;;;;;;;;;5088729;28;20920;-76
2023/06/26 07:39:11;;;;;;;8.73;2.60;;;;;;;;;;5059518;28;20419;-76
2023/06/26 07:41:37;;;;;;;7.03;2.20;;;;;;;;;;5091012;28;20496;-76
2023/06/26 07:44:03;;;;;;;7.70;2.40;;;;;;;;;;5093863;28;20495;-77
2023/06/26 07:46:30;;;;;;;7.68;2.30;;;;;;;;;;5077312;28;20468;-76
2023/06/26 07:48:56;;;;;;;8.37;2.60;;;;;;;;;;5095515;28;20491;-77
2023/06/26 07:51:22;;;;;;;5.43;2.00;;;;;;;;;;5093994;28;20401;-77
2023/06/26 07:53:48;;;;;;;5.22;2.03;;;;;;;;;;5093617;28;20997;-76
2023/06/26 07:56:14;;;;;;;6.13;1.88;;;;;;;;;;5094697;28;20420;-76
2023/06/26 07:58:40;;;;;;;5.75;2.10;;;;;;;;;;5059094;28;20409;-77
2023/06/26 08:01:06;;;;;;;6.75;2.28;;;;;;;;;;5095202;28;20418;-77
2023/06/26 08:03:32;;;;;;;4.10;1.80;;;;;;;;;;5095262;28;20398;-77
2023/06/26 08:05:58;;;;;;;6.38;2.25;;;;;;;;;;5076941;28;20403;-77
2023/06/26 08:08:24;;;;;;;4.63;2.00;;;;;;;;;;5065702;28;20413;-78
2023/06/26 08:10:50;;;;;;;6.47;2.10;;;;;;;;;;5095015;28;20389;-77
2023/06/26 08:13:16;;;;;;;4.40;1.95;;;;;;;;;;5094705;28;20541;-76
2023/06/26 08:15:43;;;;;;;5.80;2.20;;;;;;;;;;5094926;28;20597;-76
2023/06/26 08:18:09;;;;;;;4.05;2.00;;;;;;;;;;5094703;28;20397;-77
2023/06/26 08:20:36;;;;;;;7.60;2.40;;;;;;;;;;5093287;28;20418;-77
2023/06/26 08:23:04;;;;;;;6.40;2.22;;;;;;;;;;5069329;28;20411;-76
2023/06/26 08:25:30;;;;;;;6.47;1.88;;;;;;;;;;5090864;28;20777;-76
2023/06/26 08:27:56;;;;;;;5.03;1.90;;;;;;;;;;5076906;28;20409;-75
2023/06/26 08:30:27;;;;;;;7.15;2.30;;;;;;;;;;5076691;28;20410;-76
2023/06/26 08:32:53;;;;;;;6.82;2.35;;;;;;;;;;5091742;28;20426;-76
2023/06/26 08:35:19;;;;;;;6.18;2.55;;;;;;;;;;5070437;28;20418;-76
2023/06/26 08:37:45;;;;;;;6.97;2.40;;;;;;;;;;5075616;28;20424;-75
2023/06/26 08:40:12;;;;;;;4.65;2.30;;;;;;;;;;5073937;28;20417;-76
2023/06/26 08:42:38;;;;;;;6.07;2.58;;;;;;;;;;5073743;28;20473;-75
2023/06/26 08:45:05;;;;;;;5.80;2.30;;;;;;;;;;5102501;28;20426;-75
2023/06/26 08:47:33;;;;;;;6.18;2.38;;;;;;;;;;5091544;28;20429;-75
2023/06/26 08:50:10;;;;;;;7.20;2.70;;;;;;;;;;5073056;28;20452;-75
2023/06/26 08:52:42;;;;;;;7.03;2.55;;;;;;;;;;5087829;28;20421;-76
2023/06/26 08:55:11;;;;;;;7.43;2.63;;;;;;;;;;5087196;28;20948;-75
2023/06/26 08:57:37;;;;;;;5.15;2.40;;;;;;;;;;5085402;28;20398;-75
2023/06/26 09:00:04;;;;;;;5.10;2.20;;;;;;;;;;5091567;28;20485;-74
2023/06/26 09:02:30;;;;;;;6.53;2.38;;;;;;;;;;5082113;28;20422;-73
2023/06/26 09:04:56;;;;;;;5.22;2.38;;;;;;;;;;5090831;28;20417;-73
2023/06/26 09:07:22;;;;;;;6.85;2.40;;;;;;;;;;5090338;28;20448;-72
2023/06/26 09:09:48;;;;;;;6.80;2.40;;;;;;;;;;5088696;28;20418;-73
2023/06/26 09:12:14;;;;;;;7.30;2.47;;;;;;;;;;5083501;28;20501;-73
2023/06/26 09:14:41;;;;;;;7.75;2.60;;;;;;;;;;5090798;28;21014;-73
2023/06/26 09:17:07;;;;;;;6.82;2.83;;;;;;;;;;5091576;28;20461;-73
2023/06/26 09:19:37;;;;;;;8.07;3.05;;;;;;;;;;5089353;28;20405;-73
2023/06/26 09:22:03;;;;;;;5.03;2.53;;;;;;;;;;5087191;28;20428;-74
2023/06/26 09:24:31;;;;;;;6.05;2.70;;;;;;;;;;5084300;28;20773;-74
2023/06/26 09:26:57;;;;;;;6.15;2.83;;;;;;;;;;5084422;28;20446;-74
2023/06/26 09:29:23;;;;;;;6.45;2.70;;;;;;;;;;5084801;28;20446;-74
2023/06/26 09:31:52;;;;;;;6.03;2.95;;;;;;;;;;5078584;28;20831;-74
2023/06/26 09:34:20;;;;;;;6.03;2.92;;;;;;;;;;5080953;28;20461;-74
2023/06/26 09:36:48;;;;;;;11.40;3.40;;;;;;;;;;5086630;28;20456;-73
2023/06/26 09:39:15;;;;;;;7.10;3.20;;;;;;;;;;5076732;28;20494;-75
2023/06/26 09:41:44;;;;;;;8.32;3.35;;;;;;;;;;5085985;28;20462;-76
2023/06/26 09:44:12;;;;;;;7.55;3.03;;;;;;;;;;5078895;28;20502;-76
2023/06/26 09:46:38;;;;;;;7.53;3.35;;;;;;;;;;5088962;28;20494;-74
2023/06/26 09:49:06;;;;;;;6.07;3.03;;;;;;;;;;5088379;28;20410;-73
2023/06/26 09:51:32;;;;;;;6.37;3.00;;;;;;;;;;5088967;28;20441;-74
2023/06/26 09:53:59;;;;;;;5.57;3.33;;;23.00;99.90;;;;;;5074335;28;20405;-75
2023/06/26 09:56:25;;;;;;;8.00;3.17;;;;;;;;;;5085990;28;20418;-75
2023/06/26 09:58:51;;;;;;;5.95;2.80;;;;;;;;;;5085438;28;20414;-75
2023/06/26 10:01:18;;;;;;;5.13;2.90;;;22.70;99.90;;;;;;5074509;28;20421;-76
2023/06/26 10:03:44;;;;;;;6.15;2.90;;;;;;;;;;5072355;28;20417;-76
2023/06/26 10:06:11;;;;;;;7.07;3.28;;;22.80;99.90;;;;;;5085529;28;20514;-75
2023/06/26 10:08:38;;;;;;;5.45;2.83;;;;;;;;;;5088984;28;20846;-76
2023/06/26 10:11:04;;;;;;;7.70;3.00;;;;;;;;;;5088625;28;20410;-75
2023/06/26 10:13:39;;;;;;;6.65;2.80;;;23.10;99.90;;;;;;5088629;28;20600;-76
2023/06/26 10:16:07;;;;;;;5.35;2.60;;;;;;;;;;5088687;28;20766;-76
2023/06/26 10:18:34;;;;;;;5.72;2.70;;;;;;;;;;5065104;28;20410;-76
2023/06/26 10:21:01;;;;;;;9.30;3.07;;;;;;;;;;5072543;28;20758;-76
2023/06/26 10:23:29;;;;;;;7.13;2.83;;;22.90;99.90;;;;;;5070269;28;20824;-76
2023/06/26 10:26:00;;;;;;;7.10;2.97;;;23.00;99.90;;;;;;5073237;28;20425;-76
2023/06/26 10:28:27;;;;;;;6.87;3.20;;;;;;;;;;5066990;28;20889;-76
2023/06/26 10:30:53;;;;;;;7.13;2.80;;;;;;;;;;5088097;28;20475;-75
2023/06/26 10:33:20;;;;;;;8.70;3.10;;;;;;;;;;5080325;28;20422;-76
2023/06/26 10:35:47;;;;;;;6.27;2.90;;;;;;;;;;5071841;28;20470;-75
2023/06/26 10:38:13;;;;;;;7.53;3.10;;;;;;;;;;5089568;28;20458;-76
2023/06/26 10:40:45;;;;;;;6.90;2.60;;;22.90;99.90;;;;;;5083989;28;20424;-75
2023/06/26 10:43:13;;;;;;;6.35;2.50;;;;;;;;;;5067972;28;20418;-74
2023/06/26 10:45:46;;;;;;;6.40;2.75;;;22.80;99.90;;;;;;5077953;28;20449;-74
2023/06/26 10:48:16;;;;;;;7.72;2.80;;;;;;;;;;5078675;28;20421;-75
2023/06/26 10:50:41;;;;;;;7.18;2.70;;;22.90;99.90;;;;;;5085025;28;20517;-74
2023/06/26 10:53:19;;;;;;;7.28;2.65;;;23.10;99.90;;;;;;5085870;28;20516;-73
2023/06/26 10:56:07;;;;;;;7.47;2.45;;;23.20;99.90;;;;;;5090511;28;20486;-74
2023/06/26 10:58:42;;;;;;;7.97;2.60;;;;;;;;;;5082779;28;20465;-74
2023/06/26 11:01:43;;;;;;;8.82;2.78;;;22.90;99.90;;;;;;5104988;28;20417;-74
2023/06/26 11:04:14;;;;;;;7.43;2.50;;;;;;;;;;5071263;28;20953;-74
2023/06/26 11:06:41;;;;;;;8.10;2.50;;;23.30;99.90;;;;;;5087727;28;20421;-73
2023/06/26 11:09:10;;;;;;;6.47;2.55;;;23.50;99.90;;;;;;5085680;28;20425;-74
2023/06/26 11:11:52;;;;;;;6.32;2.47;;;23.70;99.90;;;;;;5072994;28;21052;-75
2023/06/26 11:14:22;;;;;;;8.57;2.30;;;;;;;;;;5072606;28;20464;-74
2023/06/26 11:16:48;;;;;;;5.50;2.15;;;23.20;99.90;;;;;;5090225;28;20413;-74
2023/06/26 11:19:16;;;;;;;5.53;1.98;;;23.30;99.90;;;;;;5085149;28;20933;-75
2023/06/26 11:21:43;;;;;;;4.33;1.77;;;23.70;99.90;;;;;;5083647;28;20405;-75
2023/06/26 11:24:09;;;;;;;5.00;1.95;;;24.00;99.90;;;;;;5086119;28;20418;-75
2023/06/26 11:26:39;;;;;;;8.30;2.05;;;23.70;99.90;;;;;;5086821;28;20501;-75
2023/06/26 11:29:05;;;;;;;7.97;2.00;;;23.70;99.90;;;;;;5072434;28;20444;-75
2023/06/26 11:31:33;;;;;;;5.25;2.17;;;23.70;99.90;;;;;;5087638;28;20409;-75
2023/06/26 11:34:11;;;;;;;6.35;1.70;;;23.80;99.90;;;;;;5089041;28;20852;-75
2023/06/26 11:36:37;;;;;;;5.50;1.85;;;;;;;;;;5065933;28;20427;-74
2023/06/26 11:39:06;;;;;;;5.55;1.75;;;23.90;99.90;;;;;;5085087;28;20421;-74
2023/06/26 11:41:33;;;;;;;6.68;2.13;;;23.80;99.90;;;;;;5066344;28;20470;-75
2023/06/26 11:44:20;;;;;;;6.45;1.90;;;23.50;99.90;;;;;;5065416;28;20547;-75
2023/06/26 11:46:46;;;;;;;6.90;1.65;;;23.30;99.90;;;;;;5072361;28;20754;-76
2023/06/26 11:49:12;;;;;;;6.40;1.70;;;;;;;;;;5088238;28;20786;-76
2023/06/26 11:51:38;;;;;;;5.93;1.65;;;;;;;;;;5071421;28;20928;-76
2023/06/26 11:54:04;;;;;;;8.40;1.80;;;;;;;;;;5086935;28;20441;-75
2023/06/26 11:56:30;;;;;;;6.85;1.60;;;;;;;;;;5066673;28;20830;-75
2023/06/26 11:58:57;;;;;;;6.93;1.80;;;;;;;;;;5100986;28;20468;-76
2023/06/26 12:01:24;;;;;;;5.85;1.70;;;;;;;;;;5084481;28;20449;-76
2023/06/26 12:03:50;;;;;;;4.97;2.08;;;;;;;;;;5090365;28;20501;-75
2023/06/26 12:06:17;;;;;;;6.35;1.80;;;;;;;;;;5092376;28;20893;-75
2023/06/26 12:08:44;;;;;;;8.18;1.70;;;;;;;;;;5090982;28;20425;-76
2023/06/26 12:11:10;;;;;;;5.37;1.93;;;;;;;;;;5091611;28;20467;-75
2023/06/26 12:13:36;;;;;;;6.13;1.88;;;;;;;;;;5088777;28;20570;-76
2023/06/26 12:16:03;;;;;;;6.97;1.90;;;;;;;;;;5089851;28;20520;-76
2023/06/26 12:18:36;;;;;;;7.63;2.17;;;;;;;;;;5089933;28;20971;-75
2023/06/26 12:21:02;;;;;;;7.15;2.33;;;;;;;;;;5067952;28;20413;-75
2023/06/26 12:23:36;;;;;;;6.93;2.17;;;;;;;;;;5087904;28;20421;-75
2023/06/26 12:26:20;;;;;;;6.93;2.10;;;;;;;;;;5080847;28;20463;-75
2023/06/26 12:28:47;;;;;;;6.22;1.95;;;;;;;;;;5088103;28;20453;-75
2023/06/26 12:31:16;;;;;;;5.22;1.90;;;;;;;;;;5088963;28;20420;-75
2023/06/26 12:33:43;;;;;;;8.23;2.03;;;;;;;;;;5076834;28;20418;-76
2023/06/26 12:36:13;;;;;;;6.83;2.07;;;;;;;;;;5091112;28;20947;-76
2023/06/26 12:38:39;;;;;;;6.07;2.20;;;;;;;;;;5088331;28;20421;-75
2023/06/26 12:41:05;;;;;;;8.73;2.00;;;;;;;;;;5084667;28;20485;-75
2023/06/26 12:43:31;;;;;;;8.95;2.17;;;;;;;;;;5091473;28;20436;-75
2023/06/26 12:45:57;;;;;;;8.52;2.65;;;;;;;;;;5081593;28;20415;-76
2023/06/26 12:48:43;;;;;;;6.97;2.17;;;22.90;99.90;;;;;;5091031;28;20923;-76
2023/06/26 12:51:13;;;;;;;6.28;2.22;;;;;;;;;;5070111;28;20462;-76
2023/06/26 12:53:40;;;;;;;7.60;2.08;;;;;;;;;;5085003;28;20424;-76
2023/06/26 12:56:07;;;;;;;6.88;2.33;;;;;;;;;;5064435;28;20797;-76
2023/06/26 12:58:33;;;;;;;6.70;1.90;;;;;;;;;;5091689;28;20541;-75
2023/06/26 13:00:59;;;;;;;5.72;1.85;;;;;;;;;;5078022;28;20426;-76
2023/06/26 13:03:25;;;;;;;6.55;2.03;;;22.70;99.90;;;;;;5089863;28;20449;-76
2023/06/26 13:05:51;;;;;;;5.43;2.15;;;;;;;;;;5089544;28;20449;-75
2023/06/26 13:08:18;;;;;;;6.40;2.00;;;;;;;;;;5089628;28;20952;-75
2023/06/26 13:10:46;;;;;;;5.85;2.00;;;22.70;99.90;;;;;;5073463;28;20478;-75
2023/06/26 13:13:12;;;;;;;8.20;1.88;;;;;;;;;;5091277;28;20417;-76
2023/06/26 13:15:38;;;;;;;8.18;2.53;;;;;;;;;;5088627;28;20426;-76
2023/06/26 13:18:04;;;;;;;6.23;1.93;;;;;;;;;;5080526;28;20442;-75
2023/06/26 13:20:30;;;;;;;8.07;2.17;;;;;;;;;;5085997;28;20466;-76
2023/06/26 13:22:57;;;;;;;6.95;2.13;;;;;;;;;;5091246;28;20422;-75
2023/06/26 13:25:23;;;;;;;4.82;1.73;;;;;;;;;;5090977;28;20433;-76
2023/06/26 13:27:49;;;;;;;5.63;1.95;;;;;;;;;;5091102;28;20429;-75
2023/06/26 13:30:16;;;;;;;7.90;1.88;;;;;;;;;;5061743;28;20425;-76
2023/06/26 13:32:42;;;;;;;8.80;2.58;;;22.80;99.90;;;;;;5087143;28;20925;-76
2023/06/26 13:35:09;;;;;;;6.90;2.10;;;;;;;;;;5066548;28;20505;-75
2023/06/26 13:37:36;;;;;;;5.40;2.10;;;;;;;;;;5092211;28;20781;-76
2023/06/26 13:40:03;;;;;;;5.53;1.85;;;;;;;;;;5072394;28;20426;-75
2023/06/26 13:42:29;;;;;;;5.93;1.80;;;;;;;;;;5090292;28;20418;-75
2023/06/26 13:44:55;;;;;;;5.32;1.85;;;;;;;;;;5088160;28;20422;-75
2023/06/26 13:47:22;;;;;;;6.60;1.80;;;;;;;;;;5085340;28;20413;-75
2023/06/26 13:49:48;;;;;;;6.20;1.80;;;;;;;;;;5088739;28;20426;-75
2023/06/26 13:52:14;;;;;;;3.58;1.42;;;;;;;;;;5091360;28;20925;-75
2023/06/26 13:54:41;;;;;;;7.00;2.05;;;;;;;;;;5089759;28;20413;-76
2023/06/26 13:57:07;;;;;;;5.63;1.90;;;;;;;;;;5082676;28;20513;-76
2023/06/26 13:59:34;;;;;;;5.90;1.83;;;;;;;;;;5049840;28;20418;-75
2023/06/26 14:02:00;;;;;;;5.90;1.80;;;;;;;;;;5081909;28;20436;-76
2023/06/26 14:04:26;;;;;;;7.00;1.90;;;;;;;;;;5084028;28;20421;-75
2023/06/26 14:06:52;;;;;;;6.18;1.85;;;;;;;;;;5083628;28;20799;-76
2023/06/26 14:09:19;;;;;;;6.13;1.70;;;;;;;;;;5046370;28;20812;-76
2023/06/26 14:11:45;;;;;;;7.03;1.80;;;;;;;;;;5076719;28;20580;-75
2023/06/26 14:14:11;;;;;;;9.35;1.95;;;;;;;;;;5084404;28;20489;-74
2023/06/26 14:16:37;;;;;;;5.47;1.70;;;;;;;;;;5049637;28;20937;-76
2023/06/26 14:19:04;;;;;;;5.85;1.75;;;;;;;;;;5081849;28;20474;-76
2023/06/26 14:21:30;;;;;;;7.47;1.70;;;;;;;;;;5085992;28;20772;-76